Time;durP1;ratioP1;P1;durP2;ratioP2;P2;SDS_P1;SDS_P2;PMS_P1;PMS_P2;Temp;Humidity;BMP_temperature;BMP_pressure;BME280_temperature;BME280_humidity;BME280_pressure;Samples;Min_cycle;Max_cycle;Signal;HPM_P1;HPM_P2
2022/08/07 00:01:05;;;;;;;8.80;8.07;;;;;;;22.45;72.86;100813.41;5078713;27;102401;-56
2022/08/07 00:03:33;;;;;;;16.42;8.60;;;;;;;22.44;72.93;100817.34;5078972;27;101908;-56
2022/08/07 00:05:59;;;;;;;8.70;7.85;;;;;;;22.43;72.81;100810.16;5079260;27;102227;-56
2022/08/07 00:08:27;;;;;;;9.57;8.52;;;;;;;22.43;72.67;100816.53;5077677;27;104077;-56
2022/08/07 00:10:55;;;;;;;8.65;7.75;;;;;;;22.44;72.80;100811.78;5078529;27;102295;-56
2022/08/07 00:13:22;;;;;;;8.88;8.07;;;;;;;22.44;72.86;100812.59;5077922;27;102733;-56
2022/08/07 00:15:49;;;;;;;8.02;7.32;;;;;;;22.43;72.91;100801.84;5092378;27;102144;-56
2022/08/07 00:18:18;;;;;;;9.15;8.25;;;;;;;22.43;72.79;100804.59;5097686;27;104031;-56
2022/08/07 00:20:44;;;;;;;9.15;8.25;;;;;;;22.44;72.70;100800.69;5095256;27;102334;-56
2022/08/07 00:23:11;;;;;;;8.50;7.70;;;;;;;22.43;72.80;100804.59;5096547;27;102413;-56
2022/08/07 00:25:37;;;;;;;8.90;8.00;;;;;;;22.43;72.69;100802.66;5097109;27;102325;-56
2022/08/07 00:28:05;;;;;;;8.32;7.53;;;;;;;22.43;72.72;100804.59;5099012;27;104034;-56
2022/08/07 00:30:32;;;;;;;8.75;8.00;;;;;;;22.42;72.71;100803.81;5093637;27;104351;-56
2022/08/07 00:33:00;;;;;;;8.95;8.23;;;;;;;22.43;72.81;100811.00;5095740;27;102053;-56
2022/08/07 00:35:27;;;;;;;8.85;7.97;;;;;;;22.42;72.85;100805.78;5099564;27;102209;-56
2022/08/07 00:37:54;;;;;;;8.50;7.70;;;;;;;22.44;72.62;100811.78;5095674;27;103946;-56
2022/08/07 00:40:21;;;;;;;8.68;7.78;;;;;;;22.44;72.84;100811.78;5081342;27;102862;-56
2022/08/07 00:42:47;;;;;;;8.55;7.68;;;;;;;22.44;72.69;100812.59;5078249;27;102481;-56
2022/08/07 00:45:15;;;;;;;9.05;7.93;;;;;;;22.44;72.76;100811.78;5094308;27;102337;-56
2022/08/07 00:47:42;;;;;;;8.82;8.02;;;;;;;22.45;72.71;100830.03;5058023;27;107701;-55
2022/08/07 00:50:09;;;;;;;9.23;8.32;;;;;;;22.45;72.67;100832.81;5076482;27;101989;-57
2022/08/07 00:52:36;;;;;;;9.10;8.25;;;;;;;22.45;72.77;100830.84;5078284;27;102207;-56
2022/08/07 00:55:03;;;;;;;8.85;8.05;;;;;;;22.44;72.75;100828.44;5079867;27;102313;-56
2022/08/07 00:57:29;;;;;;;9.90;8.20;;;;;;;22.44;72.60;100828.44;5077772;27;104101;-56
2022/08/07 00:59:56;;;;;;;8.73;8.00;;;;;;;22.44;72.78;100822.88;5086905;27;102362;-56
2022/08/07 01:02:24;;;;;;;8.20;7.50;;;;;;;22.43;72.67;100824.84;5081676;27;102305;-56
2022/08/07 01:04:51;;;;;;;7.95;7.28;;;;;;;22.42;72.77;100817.66;5087766;27;102624;-56
2022/08/07 01:07:20;;;;;;;8.82;7.97;;;;;;;22.42;72.78;100814.09;5076714;27;103805;-56
2022/08/07 01:09:46;;;;;;;8.82;8.05;;;;;;;22.43;72.84;100807.38;5060249;27;102387;-56
2022/08/07 01:12:14;;;;;;;8.30;7.60;;;;;;;22.42;72.64;100811.31;5076514;27;102370;-56
2022/08/07 01:14:41;;;;;;;8.52;7.72;;;;;;;22.42;72.75;100803.81;5077862;27;102584;-56
2022/08/07 01:17:08;;;;;;;8.85;7.95;;;;;;;22.42;72.72;100808.56;5076754;27;103932;-56
2022/08/07 01:19:37;;;;;;;8.32;7.63;;;;;;;22.43;72.60;100818.47;5076996;27;102042;-56
2022/08/07 01:22:05;;;;;;;8.10;7.25;;;;;;;22.41;72.84;100815.25;5076479;27;101962;-56
2022/08/07 01:24:33;;;;;;;8.95;7.50;;;;;;;22.42;72.76;100822.41;5077284;27;102228;-55
2022/08/07 01:27:00;;;;;;;8.70;7.90;;;;;;;22.42;72.82;100814.91;5076262;27;103949;-56
2022/08/07 01:29:28;;;;;;;8.63;7.82;;;;;;;22.41;72.63;100807.75;5078020;27;102191;-56
2022/08/07 01:31:55;;;;;;;8.57;7.88;;;;;;;22.42;72.61;100820.44;5076029;27;102132;-56
2022/08/07 01:34:22;;;;;;;8.73;7.93;;;;;;;22.41;72.81;100807.75;5078512;27;102134;-56
2022/08/07 01:36:49;;;;;;;8.52;7.63;;;;;;;22.42;72.71;100805.78;5076582;27;104226;-56
2022/08/07 01:39:17;;;;;;;8.05;7.35;;;;;;;22.41;72.50;100806.94;5083700;27;102333;-56
2022/08/07 01:41:45;;;;;;;8.23;7.53;;;;;;;22.40;72.95;100800.59;5096437;27;102023;-56
2022/08/07 01:44:12;;;;;;;8.38;7.63;;;;;;;22.41;72.75;100801.41;5098707;27;102484;-56
2022/08/07 01:46:40;;;;;;;8.60;7.90;;;;;;;22.40;72.41;100806.13;5088762;27;103883;-56
2022/08/07 01:49:06;;;;;;;8.27;7.57;;;;;;;22.41;72.73;100795.84;5076567;27;102125;-56
2022/08/07 01:51:35;;;;;;;8.23;7.45;;;;;;;22.40;72.92;100794.25;5075219;27;102187;-56
2022/08/07 01:54:06;;;;;;;8.43;7.63;;;;;;;22.40;72.58;100800.59;5086574;27;102136;-56
2022/08/07 01:56:42;;;;;;;8.80;7.90;;;;;;;22.40;72.72;100806.13;5086727;27;104099;-56
2022/08/07 01:59:14;;;;;;;8.45;7.75;;;;;;;22.41;72.28;100795.84;5076615;27;102509;-56
2022/08/07 02:01:44;;;;;;;8.82;8.02;;;;;;;22.41;72.66;100795.84;5074005;27;102351;-56
2022/08/07 02:04:14;;;;;;;7.95;7.32;;;;;;;22.40;72.57;100803.38;5077635;27;101988;-56
2022/08/07 02:06:43;;;;;;;8.68;7.97;;;;;;;22.39;72.66;100800.91;5075977;27;104179;-56
2022/08/07 02:09:14;;;;;;;7.88;7.07;;;;;;;22.41;72.77;100809.72;5075688;27;102001;-56
2022/08/07 02:11:45;;;;;;;8.60;7.90;;;;;;;22.41;72.84;100809.72;5070993;27;101886;-56
2022/08/07 02:14:14;;;;;;;8.30;7.47;;;;;;;22.40;72.71;100813.66;5077830;27;102240;-56
2022/08/07 02:16:42;;;;;;;7.63;7.03;;;;;;;22.40;72.87;100816.44;5075233;27;104184;-56
2022/08/07 02:19:12;;;;;;;8.60;7.90;;;;;;;22.40;72.78;100816.44;5076597;27;102310;-56
2022/08/07 02:21:39;;;;;;;8.68;7.88;;;;;;;22.40;72.67;100810.88;5091258;27;102395;-56
2022/08/07 02:24:08;;;;;;;7.70;7.03;;;;;;;22.40;72.69;100813.66;5079355;27;102241;-56
2022/08/07 02:26:36;;;;;;;8.05;7.32;;;;;;;22.40;72.96;100821.97;5075837;27;103919;-56
2022/08/07 02:29:07;;;;;;;8.18;7.43;;;;;;;22.39;72.86;100817.56;5077397;27;102128;-56
2022/08/07 02:31:34;;;;;;;8.30;7.60;;;;;;;22.39;72.78;100825.88;5074677;27;102419;-56
2022/08/07 02:34:03;;;;;;;8.23;7.53;;;;;;;22.39;72.69;100825.88;5077021;27;102259;-56
2022/08/07 02:36:32;;;;;;;8.45;7.75;;;;;;;22.40;72.88;100831.09;5077249;27;103925;-56
2022/08/07 02:39:01;;;;;;;8.15;7.45;;;;;;;22.39;72.69;100832.22;5080013;27;102089;-55
2022/08/07 02:41:28;;;;;;;8.43;7.63;;;;;;;22.39;72.70;100842.50;5079547;27;102240;-56
2022/08/07 02:43:58;;;;;;;8.50;7.80;;;;;;;22.39;72.65;100837.78;5080704;27;102259;-56
2022/08/07 02:46:28;;;;;;;7.80;7.20;;;;;;;22.39;72.58;100836.97;5078859;27;103841;-56
2022/08/07 02:48:55;;;;;;;9.00;8.20;;;;;;;22.38;72.72;100838.13;5079581;27;102237;-56
2022/08/07 02:51:24;;;;;;;8.05;7.35;;;;;;;22.38;72.96;100833.41;5079342;27;102324;-56
2022/08/07 02:53:53;;;;;;;;;;;;;;;22.39;72.68;100842.50;5084878;27;102511;-56
2022/08/07 02:56:21;;;;;;;;;;;;;;;22.39;72.70;100842.50;5100429;27;103938;-56
2022/08/07 02:58:49;;;;;;;8.48;7.78;;;;;;;22.38;72.70;100835.38;5100558;27;102249;-56
2022/08/07 03:01:17;;;;;;;8.03;7.30;;;;;;;22.38;72.80;100840.91;5091635;27;102340;-56
2022/08/07 03:03:46;;;;;;;8.57;7.78;;;;;;;22.39;72.22;100845.28;5076219;27;102175;-55
2022/08/07 03:06:14;;;;;;;8.23;7.53;;;;;;;22.38;72.60;100846.44;5083989;27;103930;-56
2022/08/07 03:08:41;;;;;;;7.93;7.23;;;;;;;22.38;72.71;100846.44;5096528;27;102183;-56
2022/08/07 03:11:10;;;;;;;7.90;7.20;;;;;;;22.37;72.81;100845.66;5079348;27;102001;-56
2022/08/07 03:13:36;;;;;;;8.45;7.75;;;;;;;22.38;72.69;100840.91;5081041;27;102043;-56
2022/08/07 03:16:03;;;;;;;8.40;7.70;;;;;;;22.38;72.67;100849.22;5079084;27;104682;-56
2022/08/07 03:18:31;;;;;;;7.65;6.90;;;;;;;22.37;72.71;100850.38;5089714;27;102090;-56
2022/08/07 03:20:59;;;;;;;7.60;7.00;;;;;;;22.38;72.70;100847.25;5112071;27;102223;-56
2022/08/07 03:23:27;;;;;;;8.05;7.35;;;;;;;22.37;72.65;100845.66;5091625;27;102264;-56
2022/08/07 03:25:56;;;;;;;8.48;7.78;;;;;;;22.38;72.87;100846.44;5078043;27;104058;-57
2022/08/07 03:28:23;;;;;;;8.50;7.70;;;;;;;22.37;72.70;100851.19;5079408;27;102414;-56
2022/08/07 03:31:17;;;;;;;7.88;7.18;;;;;;;22.38;72.72;100854.78;5078156;27;102460;-56
2022/08/07 03:33:39;;;;;;;8.02;7.35;;;;;;;22.38;72.70;100852.00;5078698;27;102272;-58
2022/08/07 03:36:09;;;;;;;8.30;7.60;;;;;;;22.38;72.81;100846.44;5079658;27;103959;-56
2022/08/07 03:38:37;;;;;;;7.90;7.30;;;;;;;22.38;72.88;100846.44;5077757;27;101803;-56
2022/08/07 03:41:04;;;;;;;;;;;;;;;22.38;72.81;100846.44;5086131;27;102463;-56
2022/08/07 03:43:32;;;;;;;8.18;7.47;;;;;;;22.38;72.72;100847.25;5065751;27;102166;-56
2022/08/07 03:45:59;;;;;;;8.50;7.70;;;;;;;22.40;72.88;100852.47;5059789;27;103907;-56
2022/08/07 03:48:27;;;;;;;8.07;7.38;;;;;;;22.40;72.77;100855.25;5075837;27;102427;-56
2022/08/07 03:50:56;;;;;;;9.70;8.52;;;;;;;22.41;72.71;100851.31;5078750;27;103093;-56
2022/08/07 03:53:24;;;;;;;8.90;7.60;;;;;;;22.40;72.65;100844.16;5079686;27;102445;-56
2022/08/07 03:55:51;;;;;;;8.82;7.88;;;;;;;22.42;72.77;100845.41;5077208;27;103947;-56
2022/08/07 03:58:20;;;;;;;8.80;7.90;;;;;;;22.42;72.86;100839.06;5078958;27;101961;-56
2022/08/07 04:00:47;;;;;;;;;;;;;;;22.43;72.68;100843.44;5078568;27;102582;-56
2022/08/07 04:03:13;;;;;;;8.25;7.55;;;;;;;22.44;72.79;100843.09;5080084;27;102270;-56
2022/08/07 04:05:40;;;;;;;8.23;7.53;;;;;;;22.46;72.64;100845.50;5077821;27;104057;-55
2022/08/07 04:08:10;;;;;;;8.48;7.78;;;;;;;22.47;72.45;100847.16;5097274;27;104683;-56
2022/08/07 04:10:39;;;;;;;8.13;7.43;;;;;;;22.47;72.61;100849.94;5078919;27;102338;-56
2022/08/07 04:13:06;;;;;;;8.93;8.10;;;;;;;22.48;72.53;100857.06;5079221;27;102300;-56
2022/08/07 04:15:33;;;;;;;8.15;7.38;;;;;;;22.48;72.37;100846.78;5078284;27;107928;-56
2022/08/07 04:18:01;;;;;;;7.63;7.03;;;;;;;22.49;72.44;100855.91;5078290;27;102335;-55
2022/08/07 04:20:28;;;;;;;8.57;7.88;;;;;;;22.49;72.48;100853.94;5078262;27;102275;-56
2022/08/07 04:22:55;;;;;;;8.98;8.23;;;;;;;22.49;72.38;100853.94;5080187;27;102077;-56
2022/08/07 04:25:23;;;;;;;8.77;8.07;;;;;;;22.50;72.54;100849.19;5077872;27;104046;-55
2022/08/07 04:27:51;;;;;;;8.48;7.68;;;;;;;22.50;72.38;100850.03;5094486;27;102288;-55
2022/08/07 04:30:18;;;;;;;8.38;7.68;;;;;;;22.51;72.31;100856.38;5077443;27;103569;-55
2022/08/07 04:32:45;;;;;;;8.25;7.55;;;;;;;22.51;72.32;100845.28;5078671;27;102161;-56
2022/08/07 04:35:12;;;;;;;8.75;8.00;;;;;;;22.51;72.35;100840.53;5062189;27;104099;-55
2022/08/07 04:37:38;;;;;;;9.05;8.27;;;;;;;22.51;72.41;100850.84;5073672;27;102393;-55
2022/08/07 04:40:06;;;;;;;8.60;7.90;;;;;;;22.52;72.29;100858.00;5079116;27;102463;-56
2022/08/07 04:42:33;;;;;;;8.98;8.18;;;;;;;22.52;72.48;100858.00;5079389;27;102493;-56
2022/08/07 04:45:02;;;;;;;9.00;8.20;;;;;;;22.52;72.34;100863.53;5078035;27;103928;-56
2022/08/07 04:47:35;;;;;;;9.15;8.30;;;;;;;22.54;72.11;100861.25;5077893;27;102242;-56
2022/08/07 04:50:09;;;;;;;8.75;8.05;;;;;;;22.53;72.23;100863.19;5077290;27;102260;-56
2022/08/07 04:52:42;;;;;;;8.40;7.70;;;;;;;22.53;72.34;100871.50;5077981;27;103780;-56
2022/08/07 04:55:17;;;;;;;8.98;8.18;;;;;;;22.55;72.22;100857.28;5076724;27;103903;-56
2022/08/07 04:57:51;;;;;;;8.93;8.23;;;;;;;22.54;72.28;100864.81;5083238;27;104311;-56
2022/08/07 05:00:32;;;;;;;9.15;8.35;;;;;;;22.54;72.22;100867.59;5073570;27;102193;-56
2022/08/07 05:03:09;;;;;;;8.88;8.07;;;;;;;22.55;72.30;100863.66;5077205;27;102284;-56
2022/08/07 05:05:42;;;;;;;8.07;7.47;;;;;;;22.56;72.44;100864.44;5074586;27;103870;-56
2022/08/07 05:08:17;;;;;;;8.93;8.02;;;;;;;22.55;72.47;100871.16;5071064;27;102376;-56
2022/08/07 05:10:47;;;;;;;8.85;8.15;;;;;;;22.57;72.27;100871.59;5076979;27;102294;-56
2022/08/07 05:13:19;;;;;;;8.93;8.20;;;;;;;22.58;72.37;100870.47;5078059;27;102251;-56
2022/08/07 05:15:51;;;;;;;8.65;7.95;;;;;;;22.61;72.25;100877.25;5076952;27;104233;-56
2022/08/07 05:18:21;;;;;;;8.77;8.02;;;;;;;22.60;72.33;100872.88;5076495;27;102254;-56
2022/08/07 05:20:53;;;;;;;9.52;8.68;;;;;;;22.62;72.20;100878.91;5058918;27;102101;-55
2022/08/07 05:23:22;;;;;;;8.63;7.93;;;;;;;22.62;72.31;100879.72;5077171;27;103482;-56
2022/08/07 05:25:51;;;;;;;9.38;8.57;;;;;;;22.63;72.30;100877.75;5094565;27;103992;-56
2022/08/07 05:28:20;;;;;;;9.32;8.63;;;;;;;22.65;72.63;100869.88;5076634;27;102114;-56
2022/08/07 05:30:49;;;;;;;9.82;8.95;;;;;;;22.67;72.29;100882.22;5075649;27;102255;-55
2022/08/07 05:33:15;;;;;;;;;;;;;;;22.68;72.10;100878.28;5077979;27;102319;-56
2022/08/07 05:35:43;;;;;;;10.23;9.40;;;;;;;22.68;72.24;100878.28;5076602;27;103894;-56
2022/08/07 05:38:11;;;;;;;10.57;9.60;;;;;;;22.70;72.32;100876.00;5078167;27;101909;-56
2022/08/07 05:40:39;;;;;;;10.75;9.75;;;;;;;22.70;72.01;100884.31;5076298;27;102224;-56
2022/08/07 05:43:05;;;;;;;8.80;8.10;;;;;;;22.73;71.85;100886.38;5078161;27;102210;-56
2022/08/07 05:45:32;;;;;;;10.30;9.30;;;;;;;22.74;71.96;100879.69;5076220;27;104156;-56
2022/08/07 05:48:02;;;;;;;10.60;9.60;;;;;;;22.75;71.84;100884.06;5072820;27;102605;-56
2022/08/07 05:50:31;;;;;;;9.73;8.82;;;;;;;22.77;71.92;100887.31;5075489;27;102142;-56
2022/08/07 05:52:57;;;;;;;10.30;9.30;;;;;;;22.81;71.68;100883.84;5078154;27;102379;-56
2022/08/07 05:55:24;;;;;;;10.30;9.32;;;;;;;22.80;70.94;100880.25;5067102;27;103863;-56
2022/08/07 05:57:53;;;;;;;9.93;8.93;;;;;;;22.82;71.06;100883.47;5077169;27;102017;-56
2022/08/07 06:00:20;;;;;;;;;;;;;;;22.85;70.80;100890.28;5076551;27;102245;-56
2022/08/07 06:02:49;;;;;;;10.25;9.35;;;;;;;22.86;70.61;100892.72;5078509;27;102280;-56
2022/08/07 06:05:19;;;;;;;11.57;9.95;;;;;;;22.87;70.24;100891.56;5075649;27;103965;-56
2022/08/07 06:07:46;;;;;;;9.95;9.05;;;;;;;22.89;70.42;100880.09;5077148;27;102171;-56
2022/08/07 06:10:12;;;;;;;11.00;10.00;;;;;;;22.91;70.61;100897.22;5076335;27;102024;-56
2022/08/07 06:12:39;;;;;;;10.40;8.95;;;;;;;22.91;70.19;100900.00;5078108;27;102222;-56
2022/08/07 06:15:07;;;;;;;10.05;9.25;;;;;;;22.93;70.16;100889.38;5074121;27;103988;-56
2022/08/07 06:17:34;;;;;;;;;;;;;;;22.93;70.50;100889.38;5076517;27;102338;-56
2022/08/07 06:20:01;;;;;;;10.27;9.38;;;;;;;22.95;70.12;100887.06;5085457;27;102400;-56
2022/08/07 06:22:32;;;;;;;10.63;9.63;;;;;;;22.96;70.00;100888.69;5087655;27;102188;-56
2022/08/07 06:24:58;;;;;;;11.27;10.05;;;;;;;22.95;70.38;100881.50;5071619;27;104023;-55
2022/08/07 06:27:25;;;;;;;10.63;9.63;;;;;;;22.95;70.17;100887.06;5074107;27;102387;-56
2022/08/07 06:29:52;;;;;;;10.27;9.38;;;;;;;22.97;70.09;100890.28;5073486;27;102730;-56
2022/08/07 06:32:19;;;;;;;10.15;9.25;;;;;;;22.98;70.07;100886.38;5073134;27;102909;-56
2022/08/07 06:34:46;;;;;;;10.00;9.15;;;;;;;22.99;70.04;100887.97;5071623;27;103848;-56
2022/08/07 06:37:12;;;;;;;10.77;9.75;;;;;;;23.00;70.08;100881.25;5075619;27;102615;-56
2022/08/07 06:39:40;;;;;;;10.15;9.25;;;;;;;23.01;70.05;100877.34;5075241;27;102344;-56
2022/08/07 06:42:10;;;;;;;10.67;9.77;;;;;;;23.00;70.11;100873.72;5075215;27;102302;-56
2022/08/07 06:44:39;;;;;;;10.85;9.82;;;;;;;23.02;69.90;100884.50;5072425;27;103943;-56
2022/08/07 06:47:05;;;;;;;9.68;8.88;;;;;;;23.02;70.02;100882.53;5076039;27;102320;-56
2022/08/07 06:49:32;;;;;;;10.82;9.85;;;;;;;23.02;70.15;100876.19;5075731;27;102441;-56
2022/08/07 06:52:01;;;;;;;10.15;9.25;;;;;;;23.03;69.98;100881.38;5073027;27;102276;-56
2022/08/07 06:54:30;;;;;;;10.95;10.00;;;;;;;23.05;69.99;100869.94;5075705;27;104019;-56
2022/08/07 06:56:59;;;;;;;10.18;9.35;;;;;;;23.06;69.92;100865.97;5076814;27;102445;-56
2022/08/07 06:59:31;;;;;;;10.63;9.73;;;;;;;23.07;69.85;100873.13;5075851;27;102452;-56
2022/08/07 07:01:58;;;;;;;9.90;9.05;;;;;;;23.08;69.89;100868.41;5062735;27;102600;-56
2022/08/07 07:04:25;;;;;;;10.90;10.00;;;;;;;23.09;69.79;100870.84;5067633;27;103912;-56
2022/08/07 07:06:52;;;;;;;9.85;9.05;;;;;;;23.09;69.75;100875.59;5075623;27;102058;-56
2022/08/07 07:09:22;;;;;;;10.40;9.50;;;;;;;23.10;69.44;100866.09;5068662;27;102317;-56
2022/08/07 07:12:02;;;;;;;10.50;9.50;;;;;;;23.11;69.86;100867.69;5069017;27;102362;-56
2022/08/07 07:14:35;;;;;;;10.18;9.27;;;;;;;23.11;69.61;100862.94;5060146;27;107961;-56
2022/08/07 07:17:07;;;;;;;10.15;9.25;;;;;;;23.12;69.57;100864.56;5072459;27;102488;-56
2022/08/07 07:19:37;;;;;;;9.68;8.88;;;;;;;23.13;69.48;100868.16;5094873;27;102425;-56
2022/08/07 07:22:05;;;;;;;10.15;9.10;;;;;;;23.14;69.48;100873.34;5098274;27;102216;-56
2022/08/07 07:24:31;;;;;;;12.45;9.65;;;;;;;23.13;69.41;100877.28;5090034;27;103911;-56
2022/08/07 07:27:03;;;;;;;10.30;9.30;;;;;;;23.14;69.20;100873.34;5080371;27;103281;-56
2022/08/07 07:29:34;;;;;;;9.77;8.90;;;;;;;23.14;69.56;100862.25;5070262;27;102557;-56
2022/08/07 07:32:04;;;;;;;10.00;9.02;;;;;;;23.17;69.37;100874.63;5083947;27;102427;-56
2022/08/07 07:34:33;;;;;;;9.85;9.05;;;;;;;23.18;69.22;100882.56;5077425;27;103916;-56
2022/08/07 07:37:02;;;;;;;8.88;8.10;;;;;;;23.18;69.18;100874.25;5074694;27;102388;-56
2022/08/07 07:39:30;;;;;;;10.70;8.85;;;;;;;23.20;69.11;100874.72;5072469;27;102588;-56
2022/08/07 07:41:58;;;;;;;11.30;9.60;;;;;;;23.20;69.11;100871.94;5078603;27;102591;-56
2022/08/07 07:44:27;;;;;;;;;;;;;;;23.20;69.31;100874.72;5078755;27;104296;-56
2022/08/07 07:46:56;;;;;;;9.65;8.82;;;;;;;23.19;69.07;100870.34;5079071;27;102171;-56
2022/08/07 07:49:25;;;;;;;9.90;9.10;;;;;;;23.20;68.89;100874.72;5077875;27;102016;-56
2022/08/07 07:51:53;;;;;;;9.93;8.98;;;;;;;23.21;68.86;100883.84;5078864;27;102220;-56
2022/08/07 07:54:21;;;;;;;9.73;8.80;;;;;;;23.21;69.14;100868.00;5076988;27;103860;-56
2022/08/07 07:56:51;;;;;;;10.20;9.40;;;;;;;23.19;69.00;100873.13;5077838;27;102501;-56
2022/08/07 07:59:19;;;;;;;9.63;8.82;;;;;;;23.20;69.32;100876.69;5069856;27;102156;-56
2022/08/07 08:01:49;;;;;;;9.68;8.77;;;;;;;23.20;68.80;100882.25;5079107;27;102149;-56
2022/08/07 08:04:17;;;;;;;10.25;9.35;;;;;;;23.21;68.79;100872.75;5090184;27;103965;-56
2022/08/07 08:06:46;;;;;;;10.70;9.80;;;;;;;23.23;68.66;100893.44;5094020;27;103106;-56
2022/08/07 08:09:13;;;;;;;;;;;;;;;23.24;68.65;100878.41;5098464;27;102466;-56
2022/08/07 08:11:40;;;;;;;9.20;8.40;;;;;;;23.24;68.70;100881.19;5099091;27;102592;-56
2022/08/07 08:14:07;;;;;;;9.43;8.52;;;;;;;23.23;68.43;100887.91;5096750;27;103674;-56
2022/08/07 08:16:38;;;;;;;8.65;7.93;;;;;;;23.24;68.65;100878.41;5090610;27;103145;-56
2022/08/07 08:19:08;;;;;;;9.73;8.90;;;;;;;23.25;68.42;100874.47;5077067;27;102256;-56
2022/08/07 08:27:15;;;;;;;9.15;8.25;;;;;;;23.27;68.49;100872.16;5093207;27;102354;-55
2022/08/07 08:29:45;;;;;;;8.43;7.75;;;;;;;23.29;68.30;100882.09;5079031;27;102044;-56
2022/08/07 08:32:17;;;;;;;8.32;7.53;;;;;;;23.33;68.04;100874.66;5094208;27;102168;-55
2022/08/07 08:34:47;;;;;;;8.48;7.50;;;;;;;23.33;67.95;100869.09;5080339;27;103962;-56
2022/08/07 08:37:16;;;;;;;9.40;8.55;;;;;;;23.31;67.92;100865.88;5091667;27;102498;-56
2022/08/07 08:39:44;;;;;;;9.40;8.60;;;;;;;23.28;68.12;100872.94;5056759;27;102218;-56
2022/08/07 08:42:18;;;;;;;8.57;7.88;;;;;;;23.29;68.13;100868.19;5057304;27;102424;-56
2022/08/07 08:44:53;;;;;;;8.80;8.00;;;;;;;23.31;68.05;100871.44;5073059;27;104093;-56
2022/08/07 08:47:25;;;;;;;8.55;7.65;;;;;;;23.30;67.96;100858.69;5070111;27;104438;-56
2022/08/07 08:50:02;;;;;;;8.55;7.85;;;;;;;23.31;67.87;100854.78;5069004;27;102387;-56
2022/08/07 08:52:35;;;;;;;8.43;7.72;;;;;;;23.33;67.66;100863.53;5063003;27;103575;-56
2022/08/07 08:55:08;;;;;;;10.43;7.82;;;;;;;23.35;67.61;100858.47;5069149;27;103909;-56
2022/08/07 08:57:42;;;;;;;8.45;7.65;;;;;;;23.30;68.46;100859.53;5076897;27;102204;-56
2022/08/07 09:00:11;;;;;;;9.75;7.07;;;;;;;23.31;67.74;100863.91;5075948;27;102038;-56
2022/08/07 09:02:46;;;;;;;6.75;6.25;;;;;;;23.35;67.43;100855.69;5080506;27;102271;-56
2022/08/07 09:05:27;;;;;;;6.70;6.10;;;;;;;23.38;66.90;100866.88;5074238;27;103911;-56
2022/08/07 09:08:07;;;;;;;5.93;5.32;;;;;;;23.42;66.15;100867.00;5072209;27;102040;-56
2022/08/07 09:10:43;;;;;;;7.20;5.90;;;;;;;23.42;66.17;100853.09;5079319;27;102025;-56
2022/08/07 09:13:17;;;;;;;7.18;6.13;;;;;;;23.41;66.21;100857.06;5077242;27;102274;-56
2022/08/07 09:15:52;;;;;;;7.03;6.43;;;;;;;23.41;65.77;100857.84;5074403;27;103993;-55
2022/08/07 09:18:34;;;;;;;6.32;5.65;;;;;;;23.40;65.94;100853.44;5088533;27;101950;-56
2022/08/07 09:21:16;;;;;;;5.75;5.25;;;;;;;23.40;65.96;100852.63;5088748;27;102188;-56
2022/08/07 09:23:55;;;;;;;6.88;5.65;;;;;;;23.42;65.71;100844.78;5044758;27;1249220;-56
2022/08/07 09:26:30;;;;;;;5.90;5.30;;;;;;;23.44;65.22;100861.88;5092203;27;103853;-56
2022/08/07 09:29:07;;;;;;;6.13;5.53;;;;;;;23.42;65.46;100851.13;5086180;27;102294;-56
2022/08/07 09:31:42;;;;;;;6.13;5.63;;;;;;;23.41;65.62;100851.50;5072066;27;102443;-56
2022/08/07 09:34:15;;;;;;;6.28;5.75;;;;;;;23.40;65.49;100849.84;5077524;27;102179;-56
2022/08/07 09:36:54;;;;;;;6.72;6.10;;;;;;;23.38;65.16;100850.22;5074022;27;103974;-56
2022/08/07 09:39:34;;;;;;;5.97;5.38;;;;;;;23.40;65.80;100842.31;5088447;27;102332;-56
2022/08/07 09:42:09;;;;;;;5.43;4.93;;;;;;;23.41;65.50;100859.81;5060324;27;101987;-56
2022/08/07 09:44:47;;;;;;;6.60;6.00;;;;;;;23.40;65.59;100841.53;5059180;27;102194;-56
2022/08/07 09:47:30;;;;;;;6.13;4.90;;;;;;;23.39;65.57;100845.47;5072529;27;103967;-56
2022/08/07 09:50:07;;;;;;;8.10;5.28;;;;;;;23.41;65.17;100843.16;5079206;27;103013;-56
2022/08/07 09:52:45;;;;;;;5.25;4.80;;;;;;;23.42;65.25;100850.31;5091471;27;102830;-56
2022/08/07 09:55:17;;;;;;;6.43;5.60;;;;;;;23.43;65.02;100851.94;5078019;27;102433;-56
2022/08/07 09:58:13;;;;;;;5.28;4.78;;;;;;;23.41;64.99;100851.50;5075077;27;104171;-57
2022/08/07 10:01:03;;;;;;;5.85;5.25;;;;;;;23.39;65.28;100854.59;5087003;27;102412;-56
2022/08/07 10:03:56;;;;;;;6.97;4.55;;;;;;;23.41;65.13;100851.50;5073415;27;102434;-55
2022/08/07 10:06:37;;;;;;;4.55;4.15;;;;;;;23.43;64.84;100840.81;5066223;27;102018;-56
2022/08/07 10:09:20;;;;;;;5.60;5.20;;;;;;;23.41;64.94;100843.16;5075623;27;103994;-56
2022/08/07 10:12:04;;;;;;;5.75;4.70;;;;;;;23.39;65.12;100851.03;5076221;27;102060;-56
2022/08/07 10:14:50;;;;;;;5.40;4.90;;;;;;;23.37;65.51;100847.78;5074536;27;103108;-56
2022/08/07 10:17:33;;;;;;;6.57;5.97;;;;;;;23.34;65.72;100840.19;5072868;27;103181;-56
2022/08/07 10:20:14;;;;;;;5.53;5.03;;;;;;;23.33;65.63;100842.13;5067556;27;103924;-56
2022/08/07 10:22:56;;;;;;;6.10;5.50;;;;;;;23.34;65.45;100849.31;5062223;27;102572;-56
2022/08/07 10:25:39;;;;;;;5.97;5.47;;;;;;;23.33;65.49;100844.09;5084249;27;101992;-57
2022/08/07 10:28:34;;;;;;;4.63;4.00;;;;;;;23.35;65.34;100833.47;5088621;27;102576;-56
2022/08/07 10:31:14;;;;;;;4.55;4.13;;;;;;;23.37;65.32;100836.69;5088777;27;103872;-56
2022/08/07 10:33:57;;;;;;;4.70;4.30;;;;;;;23.38;64.85;100827.22;5086271;27;101963;-56
2022/08/07 10:36:34;;;;;;;5.70;5.10;;;;;;;23.36;65.21;100829.53;5075492;27;102246;-56
2022/08/07 10:39:10;;;;;;;5.25;4.85;;;;;;;23.33;65.15;100825.47;5077790;27;102598;-56
2022/08/07 10:41:45;;;;;;;6.68;5.10;;;;;;;23.31;66.12;100832.56;5076296;27;103972;-56
2022/08/07 10:44:16;;;;;;;5.47;4.85;;;;;;;23.32;65.56;100839.72;5083852;27;102181;-56
2022/08/07 10:46:54;;;;;;;5.90;5.03;;;;;;;23.33;65.10;100838.56;5068272;27;102290;-56
2022/08/07 10:49:28;;;;;;;3.90;3.60;;;;;;;23.35;65.03;100833.47;5071536;27;102382;-56
2022/08/07 10:52:04;;;;;;;4.32;3.92;;;;;;;23.36;64.53;100829.53;5075911;27;108009;-56
2022/08/07 10:54:40;;;;;;;4.75;4.25;;;;;;;23.36;64.62;100835.06;5056837;27;102167;-55
2022/08/07 10:57:14;;;;;;;5.75;4.22;;;;;;;23.37;64.28;100831.97;5066232;27;102136;-56
2022/08/07 10:59:52;;;;;;;4.75;4.35;;;;;;;23.35;64.58;100828.72;5081171;27;101999;-56
2022/08/07 11:02:28;;;;;;;5.78;4.07;;;;;;;23.35;64.42;100825.13;5079104;27;103875;-56
2022/08/07 11:05:08;;;;;;;4.63;3.90;;;;;;;23.37;64.44;100831.13;5078622;27;102276;-56
2022/08/07 11:07:41;;;;;;;4.13;3.72;;;;;;;23.37;64.43;100826.41;5079946;27;101994;-56
2022/08/07 11:10:16;;;;;;;4.35;4.00;;;;;;;23.38;64.21;100827.22;5081489;27;102187;-56
2022/08/07 11:12:54;;;;;;;4.07;3.78;;;;;;;23.34;64.68;100831.88;5080178;27;104280;-56
2022/08/07 11:15:24;;;;;;;4.70;4.30;;;;;;;23.32;64.80;100828.63;5080841;27;102224;-56
2022/08/07 11:18:00;;;;;;;6.18;4.72;;;;;;;23.30;65.17;100833.72;5078132;27;102059;-56
2022/08/07 11:20:36;;;;;;;4.70;4.30;;;;;;;23.29;65.49;100823.78;5080368;27;102132;-56
2022/08/07 11:23:10;;;;;;;3.72;3.38;;;;;;;23.30;64.79;100819.81;5078842;27;103732;-56
2022/08/07 11:25:41;;;;;;;4.40;4.03;;;;;;;23.32;64.56;100825.84;5076941;27;102250;-56
2022/08/07 11:28:13;;;;;;;4.15;3.85;;;;;;;23.35;64.30;100831.50;5078768;27;102280;-55
2022/08/07 11:30:49;;;;;;;4.57;3.65;;;;;;;23.35;64.29;100823.16;5080883;27;102138;-55
2022/08/07 11:33:23;;;;;;;4.80;4.30;;;;;;;23.32;65.53;100817.50;5096830;27;104434;-56
2022/08/07 11:36:05;;;;;;;4.90;4.30;;;;;;;23.25;67.58;100827.25;5079676;27;102254;-56
2022/08/07 11:38:38;;;;;;;4.63;4.22;;;;;;;23.25;66.06;100835.59;5079632;27;102489;-56